createdAt,value
2019-04-22T00:01:31.204Z,58.79
2019-04-22T00:04:03.559Z,59.45
2019-04-22T00:06:49.743Z,58.24
2019-04-22T00:09:30.926Z,59.66
2019-04-22T00:12:11.232Z,58.78
2019-04-22T00:14:24.514Z,58.87
2019-04-22T00:17:08.625Z,58.69
2019-04-22T00:19:37.219Z,59.69
2019-04-22T00:22:08.079Z,58.47
2019-04-22T00:24:32.103Z,60.76
2019-04-22T00:27:03.928Z,60.32
2019-04-22T00:29:49.370Z,60.28
2019-04-22T00:32:16.535Z,59.77
2019-04-22T00:34:45.094Z,60.16
2019-04-22T00:37:17.179Z,59.45
2019-04-22T00:39:46.481Z,59.58
2019-04-22T00:42:18.022Z,58.50
2019-04-22T00:44:45.216Z,58.51
2019-04-22T00:47:23.218Z,57.34
2019-04-22T00:52:22.326Z,60.81
2019-04-22T00:54:55.674Z,61.01
2019-04-22T00:57:21.511Z,60.19
2019-04-22T01:00:03.694Z,59.77
2019-04-22T01:02:27.984Z,58.16
2019-04-22T01:05:04.018Z,58.13
2019-04-22T01:07:23.788Z,58.87
2019-04-22T01:09:58.992Z,59.18
2019-04-22T01:12:32.957Z,60.37
2019-04-22T01:15:01.011Z,59.21
2019-04-22T01:17:32.982Z,58.86
2019-04-22T01:20:13.189Z,58.85
2019-04-22T01:22:34.286Z,59.75
2019-04-22T01:25:03.675Z,58.35
2019-04-22T01:27:31.043Z,58.54
2019-04-22T01:29:59.676Z,60.56
2019-04-22T01:32:23.968Z,58.27
2019-04-22T01:35:04.402Z,59.25
2019-04-22T01:37:36.094Z,58.94
2019-04-22T01:40:17.754Z,59.86
2019-04-22T01:42:55.797Z,58.84
2019-04-22T01:45:19.340Z,60.28
2019-04-22T01:47:53.285Z,60.14
2019-04-22T01:50:21.424Z,60.98
2019-04-22T01:52:58.674Z,61.44
2019-04-22T01:55:32.409Z,60.46
2019-04-22T01:57:53.677Z,59.80
2019-04-22T02:00:15.256Z,60.84
2019-04-22T02:03:02.468Z,59.88
2019-04-22T02:05:28.746Z,59.59
2019-04-22T02:08:09.641Z,61.86
2019-04-22T02:10:42.141Z,62.74
2019-04-22T02:13:06.869Z,62.30
2019-04-22T02:15:45.871Z,61.48
2019-04-22T02:18:18.634Z,62.20
2019-04-22T02:20:37.267Z,60.87
2019-04-22T02:28:38.346Z,62.90
2019-04-22T02:31:20.108Z,63.06
2019-04-22T02:43:55.431Z,62.27
2019-04-22T02:51:24.342Z,65.08
2019-04-22T02:56:31.982Z,64.77
2019-04-22T02:59:03.864Z,64.69
2019-04-22T03:04:04.563Z,66.01
2019-04-22T03:09:08.410Z,65.30
2019-04-22T03:11:42.703Z,63.92
2019-04-22T03:19:17.418Z,65.40
2019-04-22T03:29:10.708Z,64.61
2019-04-22T03:32:12.860Z,64.26
2019-04-22T03:37:09.552Z,64.66
2019-04-22T03:44:31.714Z,64.58
2019-04-22T03:59:55.042Z,65.82
2019-04-22T04:14:47.151Z,66.83
2019-04-22T04:17:20.677Z,67.40
2019-04-22T04:20:02.624Z,67.70
2019-04-22T04:22:33.229Z,67.50
2019-04-22T04:25:19.265Z,68.19
2019-04-22T04:40:05.676Z,69.85
2019-04-22T04:47:42.138Z,70.79
2019-04-22T04:55:17.573Z,71.25
2019-04-22T05:02:46.629Z,70.03
2019-04-22T05:15:12.820Z,65.94
2019-04-22T05:20:24.118Z,65.70
2019-04-22T05:22:39.783Z,64.76
2019-04-22T05:25:14.630Z,64.67
2019-04-22T05:27:39.466Z,63.75
2019-04-22T05:30:23.565Z,63.12
2019-04-22T05:32:43.019Z,62.96
2019-04-22T05:35:25.133Z,60.84
2019-04-22T05:42:48.313Z,56.06
2019-04-22T05:47:51.822Z,51.59
2019-04-22T05:50:19.246Z,50.42
2019-04-22T05:52:51.313Z,49.28
2019-04-22T05:55:30.641Z,49.10
2019-04-22T05:57:59.711Z,49.50
2019-04-22T06:03:02.184Z,46.39
2019-04-22T06:05:38.437Z,47.13
2019-04-22T06:08:04.110Z,46.59
2019-04-22T06:10:41.107Z,48.56
2019-04-22T06:13:00.800Z,49.70
2019-04-22T06:15:34.416Z,49.88
2019-04-22T06:20:45.475Z,51.05
2019-04-22T06:23:18.647Z,50.05
2019-04-22T06:28:29.791Z,52.50
2019-04-22T06:33:22.548Z,53.33
2019-04-22T06:35:56.348Z,54.08
2019-04-22T06:41:07.358Z,55.26
2019-04-22T06:43:29.644Z,56.00
2019-04-22T06:46:02.420Z,55.59
2019-04-22T06:48:30.135Z,55.14
2019-04-22T06:51:00.539Z,54.75
2019-04-22T06:53:37.293Z,54.48
2019-04-22T06:56:06.680Z,54.60
2019-04-22T06:58:36.592Z,53.76
2019-04-22T07:01:09.239Z,53.88
2019-04-22T07:03:51.631Z,53.86
2019-04-22T07:06:12.735Z,53.07
2019-04-22T07:11:07.894Z,52.73
2019-04-22T07:13:48.579Z,52.54
2019-04-22T07:16:18.670Z,51.16
2019-04-22T07:19:02.199Z,50.70
2019-04-22T07:21:12.521Z,49.45
2019-04-22T07:24:03.018Z,48.30
2019-04-22T07:26:20.390Z,50.32
2019-04-22T07:28:50.544Z,48.02
2019-04-22T07:31:20.834Z,47.46
2019-04-22T07:33:51.149Z,46.98
2019-04-22T07:36:49.024Z,46.60
2019-04-22T07:38:57.239Z,46.35
2019-04-22T07:41:28.677Z,45.89
2019-04-22T07:44:13.839Z,45.15
2019-04-22T07:46:33.628Z,45.01
2019-04-22T07:49:02.095Z,45.20
2019-04-22T07:54:10.072Z,43.33
2019-04-22T07:56:37.981Z,43.42
2019-04-22T07:59:09.586Z,43.27
2019-04-22T08:01:36.234Z,44.80
2019-04-22T08:04:15.981Z,41.85
2019-04-22T08:06:46.367Z,42.10
2019-04-22T08:09:20.212Z,41.62
2019-04-22T08:11:51.231Z,41.89
2019-04-22T08:14:14.759Z,42.62
2019-04-22T08:16:51.903Z,42.31
2019-04-22T08:19:20.379Z,40.65
2019-04-22T08:21:52.085Z,40.85
2019-04-22T08:24:26.601Z,40.04
2019-04-22T08:26:56.079Z,40.03
2019-04-22T08:29:28.244Z,41.91
2019-04-22T08:31:56.588Z,41.54
2019-04-22T08:34:26.132Z,42.54
2019-04-22T08:37:24.189Z,41.58
2019-04-22T08:39:25.536Z,40.71
2019-04-22T08:42:11.503Z,41.43
2019-04-22T08:44:51.997Z,39.21
2019-04-22T08:49:40.910Z,38.27
2019-04-22T08:52:08.619Z,37.33
2019-04-22T08:54:41.010Z,38.23
2019-04-22T08:59:36.939Z,38.52
2019-04-22T09:02:12.080Z,36.25
2019-04-22T09:04:35.806Z,36.56
2019-04-22T09:07:28.824Z,38.25
2019-04-22T09:09:48.913Z,38.92
2019-04-22T09:12:21.279Z,36.73
2019-04-22T09:17:17.981Z,34.63
2019-04-22T09:19:47.762Z,36.00
2019-04-22T09:22:17.497Z,35.63
2019-04-22T09:24:46.981Z,32.44
2019-04-22T09:27:26.650Z,29.71
2019-04-22T09:29:56.395Z,27.98
2019-04-22T09:32:31.739Z,24.17
2019-04-22T09:34:54.548Z,24.88
2019-04-22T09:40:09.123Z,24.46
2019-04-22T09:42:37.154Z,22.79
2019-04-22T09:45:04.468Z,24.58
2019-04-22T09:47:34.515Z,23.64
2019-04-22T09:49:58.129Z,23.02
2019-04-22T09:52:36.952Z,23.60
2019-04-22T09:55:06.162Z,24.06
2019-04-22T09:57:33.914Z,22.37
2019-04-22T10:00:10.921Z,21.59
2019-04-22T10:02:42.664Z,20.95
2019-04-22T10:07:39.199Z,21.32
2019-04-22T10:10:15.111Z,21.65
2019-04-22T10:12:46.556Z,21.14
2019-04-22T10:15:13.690Z,19.15
2019-04-22T10:18:04.603Z,19.91
2019-04-22T10:20:20.593Z,19.66
2019-04-22T10:25:16.708Z,19.94
2019-04-22T10:27:55.303Z,19.03
2019-04-22T10:30:33.854Z,19.47
2019-04-22T10:32:53.865Z,19.71
2019-04-22T10:35:13.203Z,18.86
2019-04-22T10:37:38.760Z,21.00
2019-04-22T10:40:16.327Z,21.00
2019-04-22T10:42:47.378Z,19.12
2019-04-22T10:45:18.390Z,19.77
2019-04-22T10:47:48.072Z,19.40
2019-04-22T10:50:18.590Z,18.66
2019-04-22T10:52:47.975Z,19.03
2019-04-22T10:55:17.453Z,17.81
2019-04-22T10:57:48.506Z,17.50
2019-04-22T11:00:19.751Z,18.25
2019-04-22T11:02:49.838Z,18.67
2019-04-22T11:05:19.972Z,17.49
2019-04-22T11:07:56.781Z,15.96
2019-04-22T11:10:36.889Z,15.17
2019-04-22T11:12:51.937Z,14.70
2019-04-22T11:15:22.447Z,13.72
2019-04-22T11:17:53.554Z,13.41
2019-04-22T11:20:23.800Z,13.73
2019-04-22T11:22:53.240Z,13.38
2019-04-22T11:25:23.671Z,13.10
2019-04-22T11:27:53.692Z,14.56
2019-04-22T11:30:26.396Z,14.82
2019-04-22T11:32:55.979Z,13.71
2019-04-22T11:35:25.855Z,14.52
2019-04-22T11:37:55.277Z,13.36
2019-04-22T11:40:33.822Z,13.94
2019-04-22T11:42:59.602Z,12.25
2019-04-22T11:45:29.095Z,11.45
2019-04-22T11:47:59.541Z,12.39
2019-04-22T11:50:30.161Z,12.59
2019-04-22T11:53:00.780Z,13.18
2019-04-22T11:55:30.897Z,12.97
2019-04-22T11:58:01.049Z,12.24
2019-04-22T12:00:32.860Z,12.83
2019-04-22T12:03:03.185Z,13.50
2019-04-22T12:05:34.318Z,12.86
2019-04-22T12:08:04.946Z,13.12
2019-04-22T12:10:42.962Z,12.74
2019-04-22T12:13:06.305Z,12.82
2019-04-22T12:15:37.280Z,12.80
2019-04-22T12:18:07.358Z,12.26
2019-04-22T12:20:37.202Z,13.90
2019-04-22T12:23:07.414Z,13.59
2019-04-22T12:25:47.639Z,14.00
2019-04-22T12:28:11.023Z,12.95
2019-04-22T12:30:41.749Z,13.41
2019-04-22T12:33:14.532Z,13.63
2019-04-22T12:35:42.661Z,14.25
2019-04-22T12:38:13.122Z,14.54
2019-04-22T12:40:51.267Z,13.94
2019-04-22T12:43:18.516Z,13.94
2019-04-22T12:45:46.174Z,14.95
2019-04-22T12:48:17.075Z,15.35
2019-04-22T12:50:50.030Z,13.98
2019-04-22T12:53:23.552Z,13.73
2019-04-22T12:55:50.315Z,14.43
2019-04-22T12:58:20.097Z,14.33
2019-04-22T13:00:52.355Z,13.76
2019-04-22T13:03:20.512Z,15.74
2019-04-22T13:05:51.417Z,13.19
2019-04-22T13:08:21.023Z,12.96
2019-04-22T13:10:57.480Z,13.46
2019-04-22T13:13:22.939Z,14.19
2019-04-22T13:15:53.098Z,13.53
2019-04-22T13:18:31.686Z,14.28
2019-04-22T13:20:54.739Z,14.67
2019-04-22T13:23:25.564Z,14.70
2019-04-22T13:25:55.181Z,16.28
2019-04-22T13:28:25.192Z,16.05
2019-04-22T13:30:54.908Z,16.02
2019-04-22T13:33:25.054Z,14.27
2019-04-22T13:35:54.773Z,13.74
2019-04-22T13:38:24.993Z,13.73
2019-04-22T13:41:08.295Z,14.53
2019-04-22T13:43:27.020Z,14.82
2019-04-22T13:45:58.025Z,15.19
2019-04-22T13:48:46.267Z,15.40
2019-04-22T13:51:32.441Z,13.64
2019-04-22T13:54:32.927Z,13.78
2019-04-22T13:56:19.151Z,14.16
2019-04-22T13:58:48.428Z,15.01
2019-04-22T14:01:06.987Z,15.38
2019-04-22T14:03:54.665Z,14.47
2019-04-22T14:06:25.047Z,14.21
2019-04-22T14:08:55.702Z,14.87
2019-04-22T14:11:32.697Z,14.55
2019-04-22T14:13:56.737Z,15.48
2019-04-22T14:16:27.006Z,14.71
2019-04-22T14:18:58.017Z,16.32
2019-04-22T14:21:27.604Z,15.13
2019-04-22T14:23:58.412Z,15.51
2019-04-22T14:26:41.318Z,15.44
2019-04-22T14:28:59.956Z,15.24
2019-04-22T14:31:30.774Z,16.22
2019-04-22T14:34:05.251Z,15.35
2019-04-22T14:36:35.247Z,15.96
2019-04-22T14:39:08.113Z,15.48
2019-04-22T14:41:55.334Z,16.04
2019-04-22T14:47:11.251Z,15.10
2019-04-22T14:49:40.226Z,16.41
2019-04-22T14:52:03.592Z,16.86
2019-04-22T14:54:31.059Z,15.92
2019-04-22T14:56:46.667Z,15.52
2019-04-22T14:59:16.756Z,15.10
2019-04-22T15:01:47.463Z,14.29
2019-04-22T15:04:17.323Z,13.98
2019-04-22T15:06:48.908Z,14.93
2019-04-22T15:09:17.805Z,15.83
2019-04-22T15:12:02.704Z,14.98
2019-04-22T15:14:19.418Z,15.89
2019-04-22T15:17:08.981Z,15.50
2019-04-22T15:19:56.052Z,16.20
2019-04-22T15:22:26.391Z,15.30
2019-04-22T15:24:56.677Z,15.63
2019-04-22T15:27:29.607Z,16.24
2019-04-22T15:29:57.359Z,15.79
2019-04-22T15:32:27.378Z,15.35
2019-04-22T15:34:57.330Z,14.24
2019-04-22T15:37:28.264Z,14.57
2019-04-22T15:39:58.593Z,14.40
2019-04-22T15:42:33.970Z,15.25
2019-04-22T15:44:59.996Z,15.80
2019-04-22T15:47:29.447Z,15.51
2019-04-22T15:50:00.285Z,15.57
2019-04-22T15:52:36.359Z,15.47
2019-04-22T15:55:00.816Z,16.30
2019-04-22T15:57:30.807Z,15.14
2019-04-22T16:00:14.345Z,15.49
2019-04-22T16:02:31.831Z,15.45
2019-04-22T16:05:02.855Z,15.82
2019-04-22T16:07:33.830Z,15.89
2019-04-22T16:10:05.873Z,15.82
2019-04-22T16:12:45.532Z,15.92
2019-04-22T16:15:10.713Z,16.43
2019-04-22T16:17:40.297Z,15.59
2019-04-22T16:20:13.093Z,15.78
2019-04-22T16:23:01.293Z,16.59
2019-04-22T16:25:47.375Z,16.79
2019-04-22T16:28:17.430Z,16.94
2019-04-22T16:30:47.074Z,16.45
2019-04-22T16:33:17.303Z,16.28
2019-04-22T16:35:46.876Z,17.25
2019-04-22T16:38:17.023Z,19.27
2019-04-22T16:40:48.462Z,20.54
2019-04-22T16:43:19.388Z,20.49
2019-04-22T16:45:49.637Z,20.49
2019-04-22T16:48:19.864Z,22.02
2019-04-22T16:50:52.164Z,22.91
2019-04-22T16:53:20.934Z,23.11
2019-04-22T16:55:50.795Z,23.65
2019-04-22T16:58:20.814Z,24.36
2019-04-22T17:00:50.499Z,25.07
2019-04-22T17:03:28.925Z,24.66
2019-04-22T17:06:12.162Z,25.42
2019-04-22T17:08:42.533Z,25.24
2019-04-22T17:11:12.074Z,25.87
2019-04-22T17:13:42.485Z,26.75
2019-04-22T17:16:13.851Z,26.52
2019-04-22T17:18:45.575Z,26.96
2019-04-22T17:21:17.576Z,27.89
2019-04-22T17:23:47.621Z,27.88
2019-04-22T17:26:17.488Z,28.50
2019-04-22T17:28:49.302Z,28.60
2019-04-22T17:31:20.631Z,28.61
2019-04-22T17:33:50.787Z,28.63
2019-04-22T17:36:20.421Z,27.83
2019-04-22T17:38:59.997Z,28.82
2019-04-22T17:41:34.421Z,28.92
2019-04-22T17:44:18.959Z,28.27
2019-04-22T17:46:41.723Z,28.78
2019-04-22T17:49:25.537Z,29.05
2019-04-22T17:52:10.725Z,29.40
2019-04-22T17:54:42.132Z,29.56
2019-04-22T17:57:09.754Z,29.51
2019-04-22T17:59:41.775Z,30.07
2019-04-22T18:02:09.762Z,29.92
2019-04-22T18:04:29.105Z,30.79
2019-04-22T18:07:24.785Z,30.64
2019-04-22T18:12:27.210Z,31.82
2019-04-22T18:14:52.874Z,32.14
2019-04-22T18:17:23.399Z,32.18
2019-04-22T18:19:51.942Z,32.50
2019-04-22T18:22:19.948Z,33.05
2019-04-22T18:24:54.148Z,33.13
2019-04-22T18:29:59.138Z,33.37
2019-04-22T18:32:24.179Z,33.74
2019-04-22T18:34:54.191Z,33.45
2019-04-22T18:37:31.404Z,33.92
2019-04-22T18:40:08.272Z,34.38
2019-04-22T18:42:31.338Z,34.38
2019-04-22T18:45:26.017Z,33.96
2019-04-22T18:47:38.765Z,33.92
2019-04-22T18:50:08.792Z,33.89
2019-04-22T18:52:48.721Z,34.14
2019-04-22T18:55:22.602Z,34.24
2019-04-22T18:58:00.858Z,34.37
2019-04-22T19:00:18.092Z,34.65
2019-04-22T19:02:55.806Z,35.18
2019-04-22T19:05:35.903Z,35.35
2019-04-22T19:08:18.420Z,35.30
2019-04-22T19:10:54.113Z,34.87
2019-04-22T19:13:47.350Z,35.63
2019-04-22T19:15:54.201Z,35.95
2019-04-22T19:18:25.650Z,35.72
2019-04-22T19:20:57.861Z,35.80
2019-04-22T19:23:28.480Z,35.99
2019-04-22T19:25:51.176Z,36.58
2019-04-22T19:28:40.408Z,36.21
2019-04-22T19:31:02.551Z,36.76
2019-04-22T19:33:38.211Z,36.77
2019-04-22T19:36:04.991Z,36.93
2019-04-22T19:38:25.633Z,36.88
2019-04-22T19:43:38.958Z,36.48
2019-04-22T19:46:08.951Z,36.94
2019-04-22T19:48:53.115Z,36.61
2019-04-22T19:51:28.002Z,37.40
2019-04-22T19:53:42.273Z,37.23
2019-04-22T19:56:07.201Z,37.59
2019-04-22T19:58:38.550Z,37.46
2019-04-22T20:01:16.436Z,37.19
2019-04-22T20:04:12.096Z,37.17
2019-04-22T20:06:45.577Z,37.36
2019-04-22T20:09:22.503Z,38.02
2019-04-22T20:11:45.132Z,37.77
2019-04-22T20:14:16.794Z,37.42
2019-04-22T20:16:43.872Z,37.75
2019-04-22T20:19:25.224Z,37.69
2019-04-22T20:21:51.607Z,37.52
2019-04-22T20:24:11.707Z,37.44
2019-04-22T20:26:56.779Z,37.92
2019-04-22T20:29:30.964Z,37.80
2019-04-22T20:31:59.094Z,38.03
2019-04-22T20:34:32.222Z,38.28
2019-04-22T20:37:03.640Z,38.87
2019-04-22T20:39:33.441Z,39.01
2019-04-22T20:42:16.450Z,39.05
2019-04-22T20:44:39.544Z,38.57
2019-04-22T20:47:04.624Z,38.51
2019-04-22T20:49:38.266Z,38.53
2019-04-22T20:52:13.810Z,38.80
2019-04-22T20:54:40.622Z,39.06
2019-04-22T20:57:07.434Z,39.56
2019-04-22T20:59:38.981Z,39.30
2019-04-22T21:02:07.958Z,38.61
2019-04-22T21:04:35.950Z,39.16
2019-04-22T21:07:09.524Z,39.14
2019-04-22T21:09:43.097Z,39.42
2019-04-22T21:12:13.813Z,39.89
2019-04-22T21:14:47.140Z,39.44
2019-04-22T21:17:18.507Z,40.30
2019-04-22T21:19:54.709Z,40.25
2019-04-22T21:22:24.483Z,40.37
2019-04-22T21:24:48.980Z,40.60
2019-04-22T21:27:32.497Z,40.64
2019-04-22T21:29:49.466Z,40.35
2019-04-22T21:32:29.679Z,40.49
2019-04-22T21:35:07.700Z,41.10
2019-04-22T21:37:34.662Z,41.09
2019-04-22T21:39:56.640Z,41.27
2019-04-22T21:42:38.736Z,41.13
2019-04-22T21:45:00.391Z,41.01
2019-04-22T21:47:48.764Z,41.52
2019-04-22T21:50:21.491Z,42.02
2019-04-22T21:52:35.516Z,42.19
2019-04-22T21:55:13.108Z,42.39
2019-04-22T21:57:57.721Z,41.36
2019-04-22T22:00:31.106Z,41.83
2019-04-22T22:02:59.128Z,41.15
2019-04-22T22:05:20.075Z,41.21
2019-04-22T22:07:48.104Z,41.59
2019-04-22T22:10:29.478Z,41.78
2019-04-22T22:13:00.787Z,41.77
2019-04-22T22:15:31.742Z,41.61
2019-04-22T22:17:55.464Z,41.14
2019-04-22T22:20:30.983Z,41.41
2019-04-22T22:23:12.957Z,40.82
2019-04-22T22:25:33.702Z,40.38
2019-04-22T22:28:07.690Z,40.63
2019-04-22T22:30:47.638Z,40.18
2019-04-22T22:33:10.467Z,40.22
2019-04-22T22:35:39.346Z,39.20
2019-04-22T22:38:09.380Z,39.55
2019-04-22T22:40:26.324Z,40.25
2019-04-22T22:42:53.965Z,39.98
2019-04-22T22:45:33.855Z,39.79
2019-04-22T22:48:21.858Z,40.71
2019-04-22T22:50:42.823Z,40.15
2019-04-22T22:53:31.439Z,39.66
2019-04-22T22:55:46.391Z,39.20
2019-04-22T22:58:24.147Z,39.22
2019-04-22T23:00:44.084Z,39.47
2019-04-22T23:03:40.281Z,39.15
2019-04-22T23:06:00.142Z,39.85
2019-04-22T23:08:29.776Z,40.06
2019-04-22T23:11:03.523Z,39.77
2019-04-22T23:13:31.561Z,39.71
2019-04-22T23:15:50.715Z,39.76
2019-04-22T23:18:10.034Z,40.23
2019-04-22T23:20:45.599Z,40.46
2019-04-22T23:23:33.392Z,40.20
2019-04-22T23:26:07.444Z,39.61
2019-04-22T23:28:29.614Z,40.39
2019-04-22T23:31:20.700Z,40.54
2019-04-22T23:34:01.485Z,39.97
2019-04-22T23:36:25.093Z,39.96
2019-04-22T23:39:14.480Z,40.10
2019-04-22T23:44:14.132Z,40.77
2019-04-22T23:46:37.922Z,40.65
2019-04-22T23:49:08.043Z,40.82
2019-04-22T23:51:51.649Z,40.55
2019-04-22T23:54:13.211Z,40.34
2019-04-22T23:56:43.539Z,40.69
2019-04-22T23:59:48.875Z,41.11
